Current Weather Conditions: station LYUZ

sailwx.info

Wind from 240 at 12 knots

Air temperature 7.0° C
Dewpoint -1.0° C

Last reported at 2015-Mar-30 07:30 UTC.
Time now 2015-Mar-30 09:21 UTC

Location: N 43°54' E 019°42'.
View on Google Maps.

See reports from other nearby stations

  
Tides and Currents Weather Stations Pressure Air Temp Water Temp Dewpoint Dewpoint Depression Visibility Wind Speed Wind Dir Waves Ship Positions
date/time (UTC)wind fromknots sea level pressurealtimeterstation pressurevisibilityair tempwater tempwave heightnotes
2015-Mar-30 08:30 220 12 8.0
2015-Mar-30 08:00 220 13 8.0
2015-Mar-30 07:30 240 12 7.0
2015-Mar-30 07:00 240 12 7.0
2015-Mar-30 06:30 240 12 6.0
2015-Mar-30 06:00 230 13 6.0
2015-Mar-30 05:30 220 10 5.0
2015-Mar-30 05:00 230 11 4.0
2015-Mar-30 04:30 230 12 4.0
2015-Mar-30 04:00 230 12 4.0
2015-Mar-30 03:30 230 10 4.0
2015-Mar-30 03:00 230 8 4.0
2015-Mar-30 02:30 230 8 4.0
2015-Mar-30 02:00 230 12 5.0
2015-Mar-30 01:30 240 10 4.0
2015-Mar-30 01:00 240 11 4.0
2015-Mar-30 00:30 240 9 4.0
2015-Mar-30 00:00 240 8 4.0
2015-Mar-29 23:30 230 7 4.0
2015-Mar-29 23:00 240 7 4.0
2015-Mar-29 22:30 240 5 3.0
2015-Mar-29 22:00 240 4 3.0
2015-Mar-29 21:30 290 3 1.0
2015-Mar-29 21:00 3.0
2015-Mar-29 20:30 2.0
2015-Mar-29 20:00 2.0
2015-Mar-29 19:30 1.0
2015-Mar-29 19:00 2.0
2015-Mar-29 18:30 4.0
2015-Mar-29 18:00 3.0
2015-Mar-29 17:30 260 1 4.0
2015-Mar-29 17:00 270 3 6.0
2015-Mar-29 16:30 290 5 7.0
2015-Mar-29 16:00 300 6 7.0
2015-Mar-29 15:30 280 6 8.0
2015-Mar-29 15:00 300 5 5.4 8.0
2015-Mar-29 14:30 300 6 5.4 8.0
2015-Mar-29 14:00 280 8 5.4 7.0
2015-Mar-29 13:30 320 6 5.4 7.0
2015-Mar-29 13:00 310 5 5.4 7.0
2015-Mar-29 12:30 300 5 5.4 7.0
2015-Mar-29 12:00 5.4 6.0
2015-Mar-29 11:30 330 6 5.4 6.0
2015-Mar-29 11:00 290 7 5.4 5.0
2015-Mar-29 10:30 320 8 5.4 5.0
2015-Mar-29 10:00 300 7 5.4 5.0
2015-Mar-29 09:30 310 10 5.4 5.0
2015-Mar-29 09:00 5.4 4.0
2015-Mar-29 08:30 310 10 5.4 4.0
2015-Mar-29 08:00 300 12 5.4 3.0
2015-Mar-29 07:30 310 11 5.4 3.0
2015-Mar-29 07:00 310 11 5.4 2.0
2015-Mar-29 06:30 310 11 4.3 1.0
2015-Mar-29 06:00 310 10 2.7 1.0 Mist.
2015-Mar-29 05:30 300 9 2.2 1.0 Mist.
2015-Mar-29 05:00 300 7 2.2 1.0 Mist.
2015-Mar-29 04:30 310 8 1.0
2015-Mar-29 04:00 310 10 1.0
2015-Mar-29 03:30 310 10 1.0
2015-Mar-29 03:00 310 10 1.0
2015-Mar-29 02:30 310 15 1.0
2015-Mar-29 02:00 300 14 1.0
2015-Mar-29 01:30 290 11 1.0
2015-Mar-29 01:00 290 10 1.0
2015-Mar-29 00:30 300 7 1.0
2015-Mar-29 00:00 290 8 1.0
2015-Mar-28 23:30 300 9 1.0
2015-Mar-28 23:00 290 8 1.0
2015-Mar-28 22:30 300 9 1.0
2015-Mar-28 22:00 310 12 1.0
2015-Mar-28 21:30 310 9 2.0
2015-Mar-28 21:00 300 7 2.0
2015-Mar-28 20:30 300 7 2.0
2015-Mar-28 20:00 310 8 2.0
2015-Mar-28 19:30 310 9 2.0
2015-Mar-28 19:00 310 9 1.0
2015-Mar-28 18:30 310 8 1.0
2015-Mar-28 18:00 310 8 0.5 1.0 Light drizzle. Mist.
2015-Mar-28 17:30 300 10 0.2 1.0 Light drizzle. Fog.
2015-Mar-28 17:00 310 11 0.2 1.0 Light drizzle. Fog.
2015-Mar-28 16:30 310 12 0.1 1.0 Fog.
2015-Mar-28 16:00 310 14 0.1 1.0 Fog.
2015-Mar-28 15:30 310 14 0.1 1.0 Fog.
2015-Mar-28 15:00 310 14 0.1 1.0 Light snow. Fog.
2015-Mar-28 14:30 310 12 0.1 1.0 Light snow. Fog.
2015-Mar-28 14:00 310 14 0.1 1.0 Light snow. Fog.
2015-Mar-28 13:30 310 15 0.2-0.0 Light snow. Fog.
2015-Mar-28 13:00 310 16 0.2-0.0 Light snow. Fog.
2015-Mar-28 12:30 310 17 0.2-0.0 Light snow. Fog.
2015-Mar-28 12:00 310 16 0.2-0.0 Light snow. Fog.
2015-Mar-28 11:30 300 16 0.3-0.0 Light snow. Fog.
2015-Mar-28 11:00 310 18 0.1-0.0 Light snow. Fog.
2015-Mar-28 10:30 310 16 0.1-0.0 Light snow. Freezing fog.
2015-Mar-28 10:00 310 17 0.1-0.0 Light snow. Freezing fog.
2015-Mar-28 09:30 310 17 0.1-0.0 Light snow. Freezing fog.
2015-Mar-28 09:00 310 20 0.1-0.0 Light snow. Freezing fog.